createdAt,value
2019-03-18T00:03:29.257Z,62.01
2019-03-18T00:08:33.449Z,62.10
2019-03-18T00:13:37.788Z,62.18
2019-03-18T00:18:42.125Z,62.36
2019-03-18T00:23:46.310Z,62.02
2019-03-18T00:28:50.498Z,62.04
2019-03-18T00:33:54.723Z,62.04
2019-03-18T00:38:59.110Z,62.51
2019-03-18T00:44:03.406Z,62.36
2019-03-18T00:49:07.615Z,62.36
2019-03-18T00:54:11.887Z,62.22
2019-03-18T00:59:16.144Z,62.83
2019-03-18T01:04:20.254Z,61.68
2019-03-18T01:09:24.303Z,62.05
2019-03-18T01:14:28.665Z,62.00
2019-03-18T01:19:32.703Z,62.00
2019-03-18T01:24:37.075Z,62.02
2019-03-18T01:29:41.169Z,62.29
2019-03-18T01:34:45.433Z,62.41
2019-03-18T01:39:49.551Z,62.41
2019-03-18T01:44:53.695Z,62.10
2019-03-18T01:49:57.707Z,62.12
2019-03-18T01:55:01.950Z,61.67
2019-03-18T02:00:06.939Z,61.67
2019-03-18T02:05:11.562Z,61.00
2019-03-18T02:10:15.803Z,61.03
2019-03-18T02:15:19.868Z,61.03
2019-03-18T02:20:24.190Z,61.03
2019-03-18T02:25:28.420Z,61.76
2019-03-18T02:30:32.643Z,61.76
2019-03-18T02:35:36.937Z,62.00
2019-03-18T02:40:41.140Z,61.64
2019-03-18T02:45:45.481Z,61.97
2019-03-18T02:50:49.886Z,61.96
2019-03-18T02:55:54.209Z,62.16
2019-03-18T03:00:58.310Z,61.73
2019-03-18T03:06:02.465Z,61.66
2019-03-18T03:11:06.703Z,61.83
2019-03-18T03:16:25.584Z,61.54
2019-03-18T03:21:16.883Z,61.77
2019-03-18T03:26:21.231Z,61.77
2019-03-18T03:31:25.592Z,62.14
2019-03-18T03:36:29.853Z,61.98
2019-03-18T03:41:34.082Z,62.56
2019-03-18T03:46:43.576Z,62.63
2019-03-18T03:51:44.203Z,62.91
2019-03-18T03:56:48.561Z,62.08
2019-03-18T04:01:53.414Z,61.93
2019-03-18T04:06:57.570Z,61.92
2019-03-18T04:12:01.888Z,62.04
2019-03-18T04:17:06.089Z,62.03
2019-03-18T04:22:10.322Z,62.23
2019-03-18T04:27:14.511Z,62.50
2019-03-18T04:32:18.853Z,62.34
2019-03-18T04:48:56.164Z,62.53
2019-03-18T05:10:20.453Z,62.09
2019-03-18T05:15:25.696Z,62.57
2019-03-18T05:20:30.722Z,62.57
2019-03-18T05:25:37.063Z,62.00
2019-03-18T05:30:41.935Z,62.48
2019-03-18T05:35:46.769Z,62.48
2019-03-18T05:40:51.471Z,61.63
2019-03-18T05:45:56.603Z,61.67
2019-03-18T05:51:01.942Z,62.48
2019-03-18T05:56:09.838Z,61.83
2019-03-18T06:01:15.753Z,62.03
2019-03-18T06:06:21.603Z,62.03
2019-03-18T06:11:32.634Z,61.65
2019-03-18T06:16:38.261Z,61.64
2019-03-18T06:21:43.030Z,61.70
2019-03-18T06:26:47.793Z,61.35
2019-03-18T06:31:53.133Z,62.17
2019-03-18T06:36:59.201Z,61.49
2019-03-18T06:42:04.346Z,61.49
2019-03-18T06:47:10.870Z,61.10
2019-03-18T06:52:17.034Z,61.16
2019-03-18T07:03:23.707Z,60.77
2019-03-18T07:08:31.534Z,60.91
2019-03-18T07:13:41.948Z,61.23
2019-03-18T07:18:46.918Z,61.15
2019-03-18T07:23:58.757Z,60.54
2019-03-18T07:29:03.898Z,60.54
2019-03-18T07:34:11.819Z,61.52
2019-03-18T07:39:16.256Z,60.92
2019-03-18T07:44:20.347Z,60.80
2019-03-18T07:49:24.388Z,49.96
2019-03-18T07:54:33.118Z,53.24
2019-03-18T07:59:34.699Z,56.21
2019-03-18T08:04:38.750Z,56.21
2019-03-18T08:09:42.820Z,59.26
2019-03-18T08:14:46.898Z,59.26
2019-03-18T08:19:50.905Z,53.46
2019-03-18T08:24:54.983Z,50.04
2019-03-18T08:29:59.052Z,49.42
2019-03-18T08:35:03.216Z,49.49
2019-03-18T08:40:07.886Z,49.69
2019-03-18T08:45:12.185Z,49.92
2019-03-18T08:50:16.269Z,50.24
2019-03-18T08:55:21.007Z,50.90
2019-03-18T09:00:25.264Z,50.90
2019-03-18T09:05:29.332Z,51.36
2019-03-18T09:10:33.370Z,51.90
2019-03-18T09:15:37.482Z,52.19
2019-03-18T09:20:41.531Z,52.50
2019-03-18T09:25:45.561Z,52.52
2019-03-18T09:30:49.701Z,52.98
2019-03-18T09:35:53.708Z,52.98
2019-03-18T09:40:57.731Z,53.12
2019-03-18T09:46:02.259Z,53.08
2019-03-18T09:51:06.275Z,53.18
2019-03-18T09:56:10.275Z,53.34
2019-03-18T10:01:14.365Z,53.34
2019-03-18T10:06:18.370Z,53.26
2019-03-18T10:11:22.395Z,53.06
2019-03-18T10:16:26.515Z,53.54
2019-03-18T10:21:30.541Z,52.96
2019-03-18T10:26:34.569Z,53.59
2019-03-18T10:31:38.572Z,53.39
2019-03-18T10:36:42.574Z,53.53
2019-03-18T10:41:46.576Z,53.25
2019-03-18T10:46:50.564Z,53.40
2019-03-18T10:51:54.555Z,53.40
2019-03-18T10:56:58.551Z,53.83
2019-03-18T11:02:02.608Z,54.50
2019-03-18T11:07:06.599Z,53.90
2019-03-18T11:12:10.637Z,53.74
2019-03-18T11:17:14.887Z,53.43
2019-03-18T11:22:18.960Z,53.87
2019-03-18T11:27:23.082Z,53.99
2019-03-18T11:32:27.238Z,53.65
2019-03-18T11:37:31.342Z,53.65
2019-03-18T11:42:35.359Z,54.14
2019-03-18T11:47:39.432Z,54.22
2019-03-18T11:52:43.505Z,53.95
2019-03-18T11:57:47.618Z,54.98
2019-03-18T12:02:51.751Z,55.37
2019-03-18T12:07:55.923Z,55.96
2019-03-18T12:12:59.925Z,55.95
2019-03-18T12:18:03.995Z,55.64
2019-03-18T12:23:07.982Z,55.79
2019-03-18T12:28:12.001Z,55.68
2019-03-18T12:33:16.097Z,55.16
2019-03-18T12:38:20.200Z,55.83
2019-03-18T12:43:24.313Z,55.30
2019-03-18T12:48:28.401Z,55.27
2019-03-18T12:53:32.499Z,54.87
2019-03-18T12:58:36.664Z,55.11
2019-03-18T13:03:40.985Z,56.31
2019-03-18T13:08:45.491Z,56.31
2019-03-18T13:13:49.506Z,56.30
2019-03-18T13:18:53.517Z,56.30
2019-03-18T13:23:57.641Z,56.90
2019-03-18T13:29:01.665Z,56.43
2019-03-18T13:34:05.753Z,56.62
2019-03-18T13:39:09.986Z,57.15
2019-03-18T13:44:14.002Z,57.66
2019-03-18T13:49:18.045Z,57.66
2019-03-18T13:54:22.085Z,57.22
2019-03-18T13:59:26.089Z,56.76
2019-03-18T14:04:30.115Z,56.86
2019-03-18T14:09:34.110Z,57.07
2019-03-18T14:14:38.118Z,57.15
2019-03-18T14:19:42.161Z,56.95
2019-03-18T14:24:46.237Z,57.18
2019-03-18T14:29:50.245Z,58.49
2019-03-18T14:34:54.263Z,57.62
2019-03-18T14:39:58.310Z,57.62
2019-03-18T14:45:02.434Z,56.72
2019-03-18T14:50:06.981Z,56.93
2019-03-18T14:55:11.389Z,57.57
2019-03-18T15:00:17.775Z,56.66
2019-03-18T15:05:21.869Z,57.45
2019-03-18T15:10:25.912Z,57.45
2019-03-18T15:15:29.995Z,58.27
2019-03-18T15:20:34.199Z,58.15
2019-03-18T15:25:38.275Z,58.15
2019-03-18T15:30:42.480Z,56.18
2019-03-18T15:35:47.395Z,55.94
2019-03-18T15:40:51.532Z,55.29
2019-03-18T15:45:55.581Z,56.42
2019-03-18T15:50:59.604Z,56.08
2019-03-18T15:56:03.836Z,55.53
2019-03-18T16:01:07.863Z,55.53
2019-03-18T16:06:11.902Z,55.79
2019-03-18T16:11:15.949Z,54.14
2019-03-18T16:16:19.996Z,54.11
2019-03-18T16:21:24.010Z,54.04
2019-03-18T16:26:28.031Z,54.75
2019-03-18T16:31:32.137Z,54.46
2019-03-18T16:36:36.257Z,54.46
2019-03-18T16:41:43.504Z,54.29
2019-03-18T16:46:47.651Z,54.20
2019-03-18T17:18:17.989Z,56.10
2019-03-18T17:28:53.523Z,55.09
2019-03-18T17:33:57.559Z,55.09
2019-03-18T17:39:01.601Z,54.71
2019-03-18T17:44:05.920Z,55.06
2019-03-18T17:49:10.156Z,55.30
2019-03-18T17:54:14.169Z,55.30
2019-03-18T17:59:18.191Z,54.89
2019-03-18T18:04:22.189Z,54.50
2019-03-18T18:09:26.196Z,54.14
2019-03-18T18:14:30.236Z,54.08
2019-03-18T18:19:34.346Z,53.43
2019-03-18T18:24:38.556Z,53.43
2019-03-18T18:29:42.637Z,53.47
2019-03-18T18:34:46.825Z,53.03
2019-03-18T18:39:50.898Z,52.75
2019-03-18T18:44:54.897Z,51.83
2019-03-18T18:49:59.166Z,53.00
2019-03-18T18:55:03.524Z,52.95
2019-03-18T19:00:09.333Z,52.95
2019-03-18T19:05:13.666Z,53.45
2019-03-18T19:10:17.860Z,53.68
2019-03-18T19:15:22.307Z,53.80
2019-03-18T19:20:26.574Z,54.29
2019-03-18T19:25:30.782Z,53.88
2019-03-18T19:30:34.880Z,53.88
2019-03-18T19:35:38.872Z,53.70
2019-03-18T19:40:43.983Z,54.07
2019-03-18T19:45:47.989Z,54.07
2019-03-18T19:50:52.056Z,53.76
2019-03-18T19:55:56.114Z,54.22
2019-03-18T20:01:00.175Z,54.38
2019-03-18T20:06:04.625Z,54.33
2019-03-18T20:11:08.772Z,54.52
2019-03-18T20:16:12.855Z,54.52
2019-03-18T20:21:16.904Z,55.12
2019-03-18T20:26:21.027Z,54.97
2019-03-18T20:31:26.207Z,55.66
2019-03-18T20:36:30.391Z,55.28
2019-03-18T20:41:34.422Z,55.48
2019-03-18T20:46:38.423Z,55.54
2019-03-18T20:51:42.506Z,55.99
2019-03-18T20:56:46.596Z,55.79
2019-03-18T21:01:50.916Z,55.21
2019-03-18T21:06:55.172Z,56.27
2019-03-18T21:11:59.240Z,55.98
2019-03-18T21:17:03.570Z,56.36
2019-03-18T21:22:07.679Z,56.24
2019-03-18T21:27:11.785Z,56.61
2019-03-18T21:32:15.864Z,56.52
2019-03-18T21:37:20.214Z,56.49
2019-03-18T21:42:24.376Z,56.78
2019-03-18T21:47:28.650Z,56.89
2019-03-18T21:52:32.900Z,57.01
2019-03-18T21:57:37.185Z,56.78
2019-03-18T22:02:41.419Z,56.29
2019-03-18T22:07:45.660Z,56.64
2019-03-18T22:12:49.903Z,56.58
2019-03-18T22:17:54.035Z,56.64
2019-03-18T22:22:58.506Z,56.64
2019-03-18T22:28:02.693Z,56.75
2019-03-18T22:33:06.949Z,56.32
2019-03-18T22:38:11.098Z,56.89
2019-03-18T22:43:15.289Z,56.89
2019-03-18T22:48:19.591Z,56.25
2019-03-18T22:53:24.145Z,56.25
2019-03-18T22:58:28.373Z,56.65
2019-03-18T23:03:32.462Z,56.65
2019-03-18T23:08:36.507Z,56.38
2019-03-18T23:13:40.648Z,56.38
2019-03-18T23:18:44.869Z,57.05
2019-03-18T23:23:49.160Z,57.05
2019-03-18T23:28:53.362Z,56.87
2019-03-18T23:33:57.577Z,56.87
2019-03-18T23:39:01.724Z,57.07
2019-03-18T23:44:07.228Z,56.92
2019-03-18T23:49:11.454Z,56.59
2019-03-18T23:54:15.596Z,56.51
2019-03-18T23:59:19.702Z,56.27
